sensor_id;sensor_type;location;lat;lon;timestamp;P1;durP1;ratioP1;P2;durP2;ratioP2
24084;SDS011;12268;52.110;5.548;2023-08-30T08:49:58;19.40;;;12.98;;
24084;SDS011;12268;52.110;5.548;2023-08-30T08:52:28;18.40;;;12.23;;
24084;SDS011;12268;52.110;5.548;2023-08-30T08:54:54;19.38;;;12.93;;
24084;SDS011;12268;52.110;5.548;2023-08-30T08:57:20;19.85;;;12.35;;
24084;SDS011;12268;52.110;5.548;2023-08-30T08:59:46;19.65;;;12.07;;
24084;SDS011;12268;52.110;5.548;2023-08-30T09:02:12;16.45;;;11.73;;
24084;SDS011;12268;52.110;5.548;2023-08-30T09:04:39;18.50;;;11.50;;
24084;SDS011;12268;52.110;5.548;2023-08-30T09:07:05;21.25;;;11.95;;
24084;SDS011;12268;52.110;5.548;2023-08-30T09:19:53;18.33;;;12.95;;
24084;SDS011;12268;52.110;5.548;2023-08-30T09:22:18;18.63;;;13.38;;
24084;SDS011;12268;52.110;5.548;2023-08-30T09:24:44;19.42;;;13.45;;
24084;SDS011;12268;52.110;5.548;2023-08-30T09:27:09;20.20;;;13.05;;
24084;SDS011;12268;52.110;5.548;2023-08-30T09:29:35;17.83;;;13.73;;
24084;SDS011;12268;52.110;5.548;2023-08-30T09:32:00;18.40;;;13.73;;
24084;SDS011;12268;52.110;5.548;2023-08-30T09:34:26;21.05;;;14.30;;
24084;SDS011;12268;52.110;5.548;2023-08-30T09:36:52;22.55;;;14.05;;
24084;SDS011;12268;52.110;5.548;2023-08-30T09:39:18;17.35;;;13.55;;
24084;SDS011;12268;52.110;5.548;2023-08-30T09:41:48;20.08;;;14.02;;
24084;SDS011;12268;52.110;5.548;2023-08-30T09:44:15;19.35;;;13.90;;
24084;SDS011;12268;52.110;5.548;2023-08-30T09:46:45;20.52;;;15.07;;
24084;SDS011;12268;52.110;5.548;2023-08-30T09:49:17;22.38;;;15.05;;
24084;SDS011;12268;52.110;5.548;2023-08-30T09:51:44;21.02;;;14.25;;
24084;SDS011;12268;52.110;5.548;2023-08-30T09:54:13;20.77;;;14.35;;
24084;SDS011;12268;52.110;5.548;2023-08-30T09:56:43;21.73;;;16.20;;
24084;SDS011;12268;52.110;5.548;2023-08-30T09:59:10;25.42;;;16.35;;
24084;SDS011;12268;52.110;5.548;2023-08-30T10:01:37;24.05;;;16.50;;
24084;SDS011;12268;52.110;5.548;2023-08-30T10:04:09;24.70;;;17.52;;
24084;SDS011;12268;52.110;5.548;2023-08-30T10:06:36;22.88;;;15.73;;
24084;SDS011;12268;52.110;5.548;2023-08-30T10:09:03;22.58;;;15.77;;
24084;SDS011;12268;52.110;5.548;2023-08-30T10:11:30;21.60;;;15.88;;
24084;SDS011;12268;52.110;5.548;2023-08-30T10:13:58;22.15;;;16.88;;
24084;SDS011;12268;52.110;5.548;2023-08-30T10:16:25;21.20;;;16.88;;
24084;SDS011;12268;52.110;5.548;2023-08-30T10:18:54;24.80;;;17.00;;
24084;SDS011;12268;52.110;5.548;2023-08-30T10:21:27;23.30;;;17.77;;
24084;SDS011;12268;52.110;5.548;2023-08-30T10:23:54;22.60;;;17.25;;
24084;SDS011;12268;52.110;5.548;2023-08-30T10:26:21;25.13;;;18.27;;
24084;SDS011;12268;52.110;5.548;2023-08-30T10:28:52;27.52;;;18.45;;
24084;SDS011;12268;52.110;5.548;2023-08-30T10:31:19;24.52;;;19.05;;
24084;SDS011;12268;52.110;5.548;2023-08-30T10:33:48;26.85;;;19.08;;
24084;SDS011;12268;52.110;5.548;2023-08-30T10:36:20;23.63;;;19.05;;
24084;SDS011;12268;52.110;5.548;2023-08-30T10:38:54;24.73;;;19.15;;
24084;SDS011;12268;52.110;5.548;2023-08-30T10:41:23;22.55;;;18.17;;
24084;SDS011;12268;52.110;5.548;2023-08-30T10:43:51;25.17;;;20.23;;
24084;SDS011;12268;52.110;5.548;2023-08-30T10:46:28;27.27;;;20.85;;
24084;SDS011;12268;52.110;5.548;2023-08-30T10:49:08;22.02;;;19.25;;
24084;SDS011;12268;52.110;5.548;2023-08-30T10:51:39;19.00;;;16.48;;
24084;SDS011;12268;52.110;5.548;2023-08-30T10:54:15;13.95;;;12.52;;
24084;SDS011;12268;52.110;5.548;2023-08-30T10:56:45;11.43;;;10.32;;
24084;SDS011;12268;52.110;5.548;2023-08-30T10:59:19;10.13;;;9.13;;
24084;SDS011;12268;52.110;5.548;2023-08-30T11:01:46;9.85;;;8.60;;
24084;SDS011;12268;52.110;5.548;2023-08-30T11:04:13;7.60;;;6.80;;
24084;SDS011;12268;52.110;5.548;2023-08-30T11:06:45;7.80;;;7.00;;
24084;SDS011;12268;52.110;5.548;2023-08-30T11:09:18;7.50;;;6.70;;
24084;SDS011;12268;52.110;5.548;2023-08-30T11:11:46;9.88;;;6.53;;
24084;SDS011;12268;52.110;5.548;2023-08-30T11:14:12;9.18;;;6.95;;
24084;SDS011;12268;52.110;5.548;2023-08-30T11:16:39;8.90;;;7.25;;
24084;SDS011;12268;52.110;5.548;2023-08-30T11:19:05;8.45;;;5.97;;
24084;SDS011;12268;52.110;5.548;2023-08-30T11:21:32;8.35;;;6.03;;
24084;SDS011;12268;52.110;5.548;2023-08-30T11:23:59;8.13;;;5.47;;
24084;SDS011;12268;52.110;5.548;2023-08-30T11:26:25;7.72;;;4.55;;
24084;SDS011;12268;52.110;5.548;2023-08-30T11:28:51;9.68;;;4.50;;
24084;SDS011;12268;52.110;5.548;2023-08-30T11:31:27;6.72;;;4.70;;
24084;SDS011;12268;52.110;5.548;2023-08-30T11:33:56;9.23;;;4.70;;
24084;SDS011;12268;52.110;5.548;2023-08-30T11:36:23;10.68;;;5.18;;
24084;SDS011;12268;52.110;5.548;2023-08-30T11:38:52;11.93;;;5.60;;
24084;SDS011;12268;52.110;5.548;2023-08-30T11:41:19;8.85;;;5.32;;
24084;SDS011;12268;52.110;5.548;2023-08-30T11:43:46;10.35;;;4.90;;
24084;SDS011;12268;52.110;5.548;2023-08-30T11:46:13;9.13;;;5.03;;
24084;SDS011;12268;52.110;5.548;2023-08-30T11:48:39;7.20;;;3.78;;
24084;SDS011;12268;52.110;5.548;2023-08-30T11:51:06;10.05;;;4.90;;
24084;SDS011;12268;52.110;5.548;2023-08-30T11:53:33;8.75;;;3.90;;
24084;SDS011;12268;52.110;5.548;2023-08-30T11:56:02;6.90;;;3.88;;
24084;SDS011;12268;52.110;5.548;2023-08-30T11:58:31;11.07;;;4.30;;
24084;SDS011;12268;52.110;5.548;2023-08-30T12:00:58;9.25;;;4.28;;
24084;SDS011;12268;52.110;5.548;2023-08-30T12:03:25;6.47;;;3.90;;
24084;SDS011;12268;52.110;5.548;2023-08-30T12:05:51;8.15;;;3.83;;
24084;SDS011;12268;52.110;5.548;2023-08-30T12:08:18;9.77;;;3.30;;
24084;SDS011;12268;52.110;5.548;2023-08-30T12:10:51;11.40;;;3.70;;
24084;SDS011;12268;52.110;5.548;2023-08-30T12:13:24;9.80;;;4.20;;
24084;SDS011;12268;52.110;5.548;2023-08-30T12:15:55;13.30;;;4.30;;
24084;SDS011;12268;52.110;5.548;2023-08-30T12:18:43;12.43;;;4.10;;
24084;SDS011;12268;52.110;5.548;2023-08-30T12:21:08;10.60;;;4.05;;
24084;SDS011;12268;52.110;5.548;2023-08-30T12:23:34;12.02;;;4.30;;
24084;SDS011;12268;52.110;5.548;2023-08-30T12:28:29;7.38;;;3.53;;
24084;SDS011;12268;52.110;5.548;2023-08-30T12:30:56;9.48;;;3.85;;
24084;SDS011;12268;52.110;5.548;2023-08-30T12:33:22;7.70;;;3.60;;
24084;SDS011;12268;52.110;5.548;2023-08-30T12:35:50;10.27;;;3.85;;
24084;SDS011;12268;52.110;5.548;2023-08-30T12:38:16;9.15;;;3.35;;
24084;SDS011;12268;52.110;5.548;2023-08-30T12:40:43;10.07;;;3.47;;
24084;SDS011;12268;52.110;5.548;2023-08-30T12:43:13;9.68;;;3.55;;
24084;SDS011;12268;52.110;5.548;2023-08-30T12:45:40;9.93;;;3.00;;
24084;SDS011;12268;52.110;5.548;2023-08-30T12:48:06;9.82;;;3.17;;
24084;SDS011;12268;52.110;5.548;2023-08-30T12:50:33;12.50;;;3.63;;
24084;SDS011;12268;52.110;5.548;2023-08-30T12:53:00;9.35;;;3.08;;
24084;SDS011;12268;52.110;5.548;2023-08-30T12:55:26;6.60;;;2.53;;
24084;SDS011;12268;52.110;5.548;2023-08-30T12:57:51;10.05;;;2.50;;
24084;SDS011;12268;52.110;5.548;2023-08-30T13:00:18;9.80;;;2.42;;
24084;SDS011;12268;52.110;5.548;2023-08-30T13:02:44;7.70;;;2.53;;
24084;SDS011;12268;52.110;5.548;2023-08-30T13:05:10;9.00;;;2.33;;
24084;SDS011;12268;52.110;5.548;2023-08-30T13:07:36;8.05;;;2.78;;
24084;SDS011;12268;52.110;5.548;2023-08-30T13:10:01;6.65;;;2.80;;
24084;SDS011;12268;52.110;5.548;2023-08-30T13:12:27;9.27;;;3.17;;
24084;SDS011;12268;52.110;5.548;2023-08-30T13:14:53;11.65;;;3.20;;
24084;SDS011;12268;52.110;5.548;2023-08-30T13:17:18;6.85;;;2.40;;
24084;SDS011;12268;52.110;5.548;2023-08-30T13:19:44;7.25;;;2.72;;
24084;SDS011;12268;52.110;5.548;2023-08-30T13:22:10;7.70;;;2.78;;
24084;SDS011;12268;52.110;5.548;2023-08-30T13:24:35;7.72;;;2.55;;
24084;SDS011;12268;52.110;5.548;2023-08-30T13:27:01;7.88;;;2.40;;
24084;SDS011;12268;52.110;5.548;2023-08-30T13:29:27;8.27;;;2.50;;
24084;SDS011;12268;52.110;5.548;2023-08-30T13:31:53;9.82;;;2.50;;
24084;SDS011;12268;52.110;5.548;2023-08-30T13:34:19;7.00;;;2.33;;
24084;SDS011;12268;52.110;5.548;2023-08-30T13:36:44;10.90;;;2.90;;
24084;SDS011;12268;52.110;5.548;2023-08-30T13:39:10;8.55;;;3.00;;
24084;SDS011;12268;52.110;5.548;2023-08-30T13:41:36;9.30;;;2.70;;
24084;SDS011;12268;52.110;5.548;2023-08-30T13:44:01;9.38;;;2.45;;
24084;SDS011;12268;52.110;5.548;2023-08-30T13:46:30;11.68;;;2.50;;
24084;SDS011;12268;52.110;5.548;2023-08-30T13:48:56;10.02;;;2.55;;
24084;SDS011;12268;52.110;5.548;2023-08-30T13:51:22;7.07;;;2.47;;
24084;SDS011;12268;52.110;5.548;2023-08-30T13:53:48;7.78;;;2.50;;
24084;SDS011;12268;52.110;5.548;2023-08-30T13:56:14;9.23;;;2.40;;
24084;SDS011;12268;52.110;5.548;2023-08-30T13:58:39;7.85;;;2.15;;
24084;SDS011;12268;52.110;5.548;2023-08-30T14:01:05;5.90;;;2.40;;
24084;SDS011;12268;52.110;5.548;2023-08-30T14:03:30;7.53;;;2.35;;
24084;SDS011;12268;52.110;5.548;2023-08-30T14:05:56;7.82;;;2.20;;
24084;SDS011;12268;52.110;5.548;2023-08-30T14:08:22;10.05;;;2.13;;
24084;SDS011;12268;52.110;5.548;2023-08-30T14:10:47;5.35;;;1.98;;
24084;SDS011;12268;52.110;5.548;2023-08-30T14:13:13;11.45;;;2.33;;
24084;SDS011;12268;52.110;5.548;2023-08-30T14:15:38;10.40;;;2.58;;
24084;SDS011;12268;52.110;5.548;2023-08-30T14:18:05;7.60;;;2.30;;
24084;SDS011;12268;52.110;5.548;2023-08-30T14:20:31;9.02;;;2.80;;
24084;SDS011;12268;52.110;5.548;2023-08-30T14:22:56;7.22;;;2.55;;
24084;SDS011;12268;52.110;5.548;2023-08-30T14:25:22;6.10;;;2.45;;
24084;SDS011;12268;52.110;5.548;2023-08-30T14:27:48;6.45;;;1.70;;
24084;SDS011;12268;52.110;5.548;2023-08-30T14:30:13;8.38;;;2.25;;
24084;SDS011;12268;52.110;5.548;2023-08-30T14:32:39;6.47;;;1.85;;
24084;SDS011;12268;52.110;5.548;2023-08-30T14:35:05;7.13;;;2.17;;
24084;SDS011;12268;52.110;5.548;2023-08-30T14:37:31;6.72;;;2.20;;
24084;SDS011;12268;52.110;5.548;2023-08-30T14:39:59;5.78;;;2.25;;
24084;SDS011;12268;52.110;5.548;2023-08-30T14:42:25;7.03;;;2.03;;
24084;SDS011;12268;52.110;5.548;2023-08-30T14:44:51;7.32;;;2.40;;
24084;SDS011;12268;52.110;5.548;2023-08-30T14:47:17;5.45;;;2.22;;
24084;SDS011;12268;52.110;5.548;2023-08-30T14:49:44;8.57;;;2.65;;
24084;SDS011;12268;52.110;5.548;2023-08-30T14:52:10;7.95;;;2.53;;
24084;SDS011;12268;52.110;5.548;2023-08-30T14:54:35;3.65;;;2.08;;
24084;SDS011;12268;52.110;5.548;2023-08-30T14:57:01;8.70;;;3.08;;
24084;SDS011;12268;52.110;5.548;2023-08-30T14:59:27;9.07;;;3.22;;
24084;SDS011;12268;52.110;5.548;2023-08-30T15:01:52;5.97;;;2.55;;
24084;SDS011;12268;52.110;5.548;2023-08-30T15:04:18;6.15;;;2.90;;
24084;SDS011;12268;52.110;5.548;2023-08-30T15:06:43;10.50;;;3.38;;
24084;SDS011;12268;52.110;5.548;2023-08-30T15:09:09;6.45;;;3.45;;
24084;SDS011;12268;52.110;5.548;2023-08-30T15:11:35;7.35;;;3.10;;
24084;SDS011;12268;52.110;5.548;2023-08-30T15:14:01;8.40;;;2.58;;
24084;SDS011;12268;52.110;5.548;2023-08-30T15:16:26;8.30;;;2.60;;
24084;SDS011;12268;52.110;5.548;2023-08-30T15:18:52;6.57;;;2.80;;
24084;SDS011;12268;52.110;5.548;2023-08-30T15:21:17;6.22;;;2.50;;
24084;SDS011;12268;52.110;5.548;2023-08-30T15:23:43;6.47;;;2.63;;
24084;SDS011;12268;52.110;5.548;2023-08-30T15:26:08;6.70;;;2.50;;
24084;SDS011;12268;52.110;5.548;2023-08-30T15:28:35;4.30;;;1.95;;
24084;SDS011;12268;52.110;5.548;2023-08-30T15:31:01;4.72;;;2.20;;
24084;SDS011;12268;52.110;5.548;2023-08-30T15:33:28;5.85;;;2.15;;
24084;SDS011;12268;52.110;5.548;2023-08-30T15:35:56;5.20;;;2.28;;
24084;SDS011;12268;52.110;5.548;2023-08-30T15:38:22;9.23;;;2.80;;
24084;SDS011;12268;52.110;5.548;2023-08-30T15:40:48;12.35;;;3.53;;
24084;SDS011;12268;52.110;5.548;2023-08-30T15:43:18;11.70;;;3.92;;
24084;SDS011;12268;52.110;5.548;2023-08-30T17:55:58;8.68;;;2.30;;
24084;SDS011;12268;52.110;5.548;2023-08-30T17:58:25;6.60;;;2.13;;
24084;SDS011;12268;52.110;5.548;2023-08-30T18:00:52;6.53;;;2.30;;
24084;SDS011;12268;52.110;5.548;2023-08-30T18:03:22;6.13;;;2.10;;
24084;SDS011;12268;52.110;5.548;2023-08-30T18:05:49;9.05;;;2.10;;
24084;SDS011;12268;52.110;5.548;2023-08-30T18:08:15;5.28;;;2.10;;
24084;SDS011;12268;52.110;5.548;2023-08-30T18:10:41;7.63;;;2.17;;
24084;SDS011;12268;52.110;5.548;2023-08-30T18:13:07;8.02;;;2.25;;
24084;SDS011;12268;52.110;5.548;2023-08-30T18:15:36;7.93;;;2.20;;
24084;SDS011;12268;52.110;5.548;2023-08-30T18:18:02;5.00;;;2.15;;
24084;SDS011;12268;52.110;5.548;2023-08-30T18:20:29;6.70;;;2.10;;
24084;SDS011;12268;52.110;5.548;2023-08-30T18:22:54;6.47;;;2.10;;
24084;SDS011;12268;52.110;5.548;2023-08-30T18:25:20;8.55;;;2.20;;
24084;SDS011;12268;52.110;5.548;2023-08-30T18:27:45;4.57;;;2.40;;
24084;SDS011;12268;52.110;5.548;2023-08-30T18:30:11;6.20;;;2.13;;
24084;SDS011;12268;52.110;5.548;2023-08-30T18:32:37;7.35;;;2.33;;
24084;SDS011;12268;52.110;5.548;2023-08-30T18:35:02;8.57;;;2.30;;
24084;SDS011;12268;52.110;5.548;2023-08-30T18:37:28;6.45;;;2.13;;
24084;SDS011;12268;52.110;5.548;2023-08-30T18:39:54;8.32;;;2.20;;
24084;SDS011;12268;52.110;5.548;2023-08-30T18:42:19;9.35;;;2.53;;
24084;SDS011;12268;52.110;5.548;2023-08-30T18:44:45;6.95;;;2.42;;
24084;SDS011;12268;52.110;5.548;2023-08-30T18:47:11;6.28;;;2.08;;
24084;SDS011;12268;52.110;5.548;2023-08-30T18:49:42;7.40;;;2.70;;
24084;SDS011;12268;52.110;5.548;2023-08-30T18:52:08;5.65;;;2.10;;
24084;SDS011;12268;52.110;5.548;2023-08-30T18:54:33;7.38;;;2.40;;
24084;SDS011;12268;52.110;5.548;2023-08-30T18:56:59;7.97;;;2.58;;
24084;SDS011;12268;52.110;5.548;2023-08-30T18:59:25;5.97;;;2.17;;
24084;SDS011;12268;52.110;5.548;2023-08-30T19:01:50;6.75;;;2.33;;
24084;SDS011;12268;52.110;5.548;2023-08-30T19:04:16;5.65;;;2.10;;
24084;SDS011;12268;52.110;5.548;2023-08-30T19:06:42;5.18;;;2.47;;
24084;SDS011;12268;52.110;5.548;2023-08-30T19:09:07;7.35;;;2.15;;
24084;SDS011;12268;52.110;5.548;2023-08-30T19:11:34;7.40;;;2.55;;
24084;SDS011;12268;52.110;5.548;2023-08-30T19:14:00;7.75;;;2.70;;
24084;SDS011;12268;52.110;5.548;2023-08-30T19:16:26;5.57;;;2.35;;
24084;SDS011;12268;52.110;5.548;2023-08-30T19:18:51;9.60;;;2.65;;
24084;SDS011;12268;52.110;5.548;2023-08-30T19:21:17;7.22;;;2.60;;
24084;SDS011;12268;52.110;5.548;2023-08-30T19:23:45;6.68;;;2.55;;
24084;SDS011;12268;52.110;5.548;2023-08-30T19:26:12;11.20;;;2.38;;
24084;SDS011;12268;52.110;5.548;2023-08-30T19:28:38;8.88;;;2.60;;
24084;SDS011;12268;52.110;5.548;2023-08-30T19:31:04;6.95;;;2.42;;
24084;SDS011;12268;52.110;5.548;2023-08-30T19:33:29;9.25;;;2.70;;
24084;SDS011;12268;52.110;5.548;2023-08-30T19:35:55;7.22;;;2.40;;
24084;SDS011;12268;52.110;5.548;2023-08-30T19:38:20;8.13;;;2.42;;
24084;SDS011;12268;52.110;5.548;2023-08-30T19:40:53;12.50;;;3.30;;
24084;SDS011;12268;52.110;5.548;2023-08-30T19:43:21;10.55;;;2.70;;
24084;SDS011;12268;52.110;5.548;2023-08-30T19:45:46;7.07;;;2.88;;
24084;SDS011;12268;52.110;5.548;2023-08-30T19:48:23;7.40;;;2.60;;
24084;SDS011;12268;52.110;5.548;2023-08-30T19:50:52;9.60;;;3.10;;
24084;SDS011;12268;52.110;5.548;2023-08-30T19:53:17;9.57;;;3.15;;
24084;SDS011;12268;52.110;5.548;2023-08-30T19:55:43;9.73;;;3.03;;
24084;SDS011;12268;52.110;5.548;2023-08-30T19:58:12;13.88;;;3.13;;
24084;SDS011;12268;52.110;5.548;2023-08-30T20:00:37;11.13;;;3.17;;
24084;SDS011;12268;52.110;5.548;2023-08-30T20:03:03;6.97;;;2.78;;
24084;SDS011;12268;52.110;5.548;2023-08-30T20:05:29;7.63;;;2.88;;
24084;SDS011;12268;52.110;5.548;2023-08-30T20:07:54;8.35;;;2.75;;
24084;SDS011;12268;52.110;5.548;2023-08-30T20:10:21;7.15;;;2.60;;
24084;SDS011;12268;52.110;5.548;2023-08-30T20:12:46;7.22;;;2.30;;
24084;SDS011;12268;52.110;5.548;2023-08-30T20:15:14;10.32;;;2.90;;
24084;SDS011;12268;52.110;5.548;2023-08-30T20:17:40;9.50;;;3.10;;
24084;SDS011;12268;52.110;5.548;2023-08-30T20:20:05;6.13;;;2.78;;
24084;SDS011;12268;52.110;5.548;2023-08-30T20:22:31;7.47;;;2.83;;
24084;SDS011;12268;52.110;5.548;2023-08-30T20:24:57;6.93;;;2.95;;
24084;SDS011;12268;52.110;5.548;2023-08-30T20:27:24;11.27;;;3.08;;
24084;SDS011;12268;52.110;5.548;2023-08-30T20:29:49;7.47;;;2.88;;
24084;SDS011;12268;52.110;5.548;2023-08-30T20:32:15;6.80;;;2.90;;
24084;SDS011;12268;52.110;5.548;2023-08-30T20:34:40;9.45;;;3.10;;
24084;SDS011;12268;52.110;5.548;2023-08-30T20:37:06;8.88;;;2.80;;
24084;SDS011;12268;52.110;5.548;2023-08-30T20:39:31;7.63;;;3.10;;
24084;SDS011;12268;52.110;5.548;2023-08-30T20:41:57;5.88;;;2.50;;
24084;SDS011;12268;52.110;5.548;2023-08-30T20:44:22;5.78;;;3.05;;
24084;SDS011;12268;52.110;5.548;2023-08-30T20:46:48;5.75;;;2.88;;
24084;SDS011;12268;52.110;5.548;2023-08-30T20:49:14;6.50;;;2.70;;
24084;SDS011;12268;52.110;5.548;2023-08-30T20:51:40;9.95;;;3.03;;
24084;SDS011;12268;52.110;5.548;2023-08-30T20:54:05;8.93;;;3.03;;
24084;SDS011;12268;52.110;5.548;2023-08-30T20:56:31;9.15;;;3.30;;
24084;SDS011;12268;52.110;5.548;2023-08-30T20:58:57;10.38;;;3.53;;
24084;SDS011;12268;52.110;5.548;2023-08-30T21:01:25;7.05;;;3.03;;
24084;SDS011;12268;52.110;5.548;2023-08-30T21:03:54;7.30;;;3.33;;
24084;SDS011;12268;52.110;5.548;2023-08-30T21:06:20;6.22;;;3.40;;
24084;SDS011;12268;52.110;5.548;2023-08-30T21:08:46;8.30;;;3.60;;
24084;SDS011;12268;52.110;5.548;2023-08-30T21:11:13;10.85;;;3.30;;
24084;SDS011;12268;52.110;5.548;2023-08-30T21:13:38;5.97;;;3.38;;
24084;SDS011;12268;52.110;5.548;2023-08-30T21:16:04;6.88;;;3.08;;
24084;SDS011;12268;52.110;5.548;2023-08-30T21:18:30;6.55;;;2.63;;
24084;SDS011;12268;52.110;5.548;2023-08-30T21:20:56;7.53;;;2.40;;
24084;SDS011;12268;52.110;5.548;2023-08-30T21:23:22;4.90;;;2.47;;
24084;SDS011;12268;52.110;5.548;2023-08-30T21:25:48;6.70;;;2.88;;
24084;SDS011;12268;52.110;5.548;2023-08-30T21:28:13;5.45;;;2.58;;
24084;SDS011;12268;52.110;5.548;2023-08-30T21:30:39;6.20;;;2.63;;
24084;SDS011;12268;52.110;5.548;2023-08-30T21:33:07;6.18;;;2.60;;
24084;SDS011;12268;52.110;5.548;2023-08-30T21:35:40;5.28;;;2.65;;
24084;SDS011;12268;52.110;5.548;2023-08-30T21:38:10;5.57;;;2.80;;
24084;SDS011;12268;52.110;5.548;2023-08-30T21:40:37;6.72;;;3.05;;
24084;SDS011;12268;52.110;5.548;2023-08-30T21:43:04;6.10;;;3.45;;
24084;SDS011;12268;52.110;5.548;2023-08-30T21:45:30;5.70;;;3.05;;
24084;SDS011;12268;52.110;5.548;2023-08-30T21:47:56;7.07;;;3.13;;
24084;SDS011;12268;52.110;5.548;2023-08-30T21:50:22;4.90;;;3.10;;
24084;SDS011;12268;52.110;5.548;2023-08-30T21:52:48;4.55;;;3.20;;
24084;SDS011;12268;52.110;5.548;2023-08-30T21:55:13;5.43;;;3.15;;
24084;SDS011;12268;52.110;5.548;2023-08-30T21:57:39;8.38;;;3.55;;
24084;SDS011;12268;52.110;5.548;2023-08-30T22:00:05;5.70;;;3.50;;
24084;SDS011;12268;52.110;5.548;2023-08-30T22:02:37;5.50;;;3.75;;
24084;SDS011;12268;52.110;5.548;2023-08-30T22:05:07;8.75;;;4.43;;
24084;SDS011;12268;52.110;5.548;2023-08-30T22:07:35;7.30;;;5.25;;
24084;SDS011;12268;52.110;5.548;2023-08-30T22:10:01;9.65;;;5.20;;
24084;SDS011;12268;52.110;5.548;2023-08-30T22:12:27;7.30;;;5.03;;
24084;SDS011;12268;52.110;5.548;2023-08-30T22:14:53;9.40;;;5.90;;
24084;SDS011;12268;52.110;5.548;2023-08-30T22:17:19;8.40;;;5.70;;
24084;SDS011;12268;52.110;5.548;2023-08-30T22:19:45;7.13;;;5.15;;
24084;SDS011;12268;52.110;5.548;2023-08-30T22:22:11;8.10;;;5.63;;
24084;SDS011;12268;52.110;5.548;2023-08-30T22:24:37;9.02;;;5.13;;
24084;SDS011;12268;52.110;5.548;2023-08-30T22:27:02;6.95;;;5.00;;
24084;SDS011;12268;52.110;5.548;2023-08-30T22:29:28;4.78;;;4.25;;
24084;SDS011;12268;52.110;5.548;2023-08-30T22:31:55;6.28;;;3.90;;
24084;SDS011;12268;52.110;5.548;2023-08-30T22:34:21;6.45;;;3.92;;
24084;SDS011;12268;52.110;5.548;2023-08-30T22:36:46;5.22;;;3.40;;
24084;SDS011;12268;52.110;5.548;2023-08-30T22:39:12;6.03;;;3.63;;
24084;SDS011;12268;52.110;5.548;2023-08-30T22:41:37;5.32;;;3.22;;
24084;SDS011;12268;52.110;5.548;2023-08-30T22:44:03;5.50;;;3.20;;
24084;SDS011;12268;52.110;5.548;2023-08-30T22:46:29;7.03;;;3.60;;
24084;SDS011;12268;52.110;5.548;2023-08-30T22:48:55;4.50;;;3.28;;
24084;SDS011;12268;52.110;5.548;2023-08-30T22:51:22;4.25;;;3.47;;
24084;SDS011;12268;52.110;5.548;2023-08-30T22:53:49;7.25;;;4.40;;
24084;SDS011;12268;52.110;5.548;2023-08-30T22:56:15;6.10;;;3.90;;
24084;SDS011;12268;52.110;5.548;2023-08-30T22:58:40;6.10;;;4.30;;
24084;SDS011;12268;52.110;5.548;2023-08-30T23:01:06;7.88;;;4.32;;
24084;SDS011;12268;52.110;5.548;2023-08-30T23:03:32;9.65;;;4.55;;
24084;SDS011;12268;52.110;5.548;2023-08-30T23:06:00;8.27;;;5.05;;
24084;SDS011;12268;52.110;5.548;2023-08-30T23:08:27;10.52;;;5.20;;
24084;SDS011;12268;52.110;5.548;2023-08-30T23:10:57;8.25;;;5.25;;
24084;SDS011;12268;52.110;5.548;2023-08-30T23:13:23;8.57;;;5.15;;
24084;SDS011;12268;52.110;5.548;2023-08-30T23:15:49;7.95;;;5.20;;
24084;SDS011;12268;52.110;5.548;2023-08-30T23:18:14;9.75;;;4.88;;
24084;SDS011;12268;52.110;5.548;2023-08-30T23:20:40;6.38;;;4.40;;
24084;SDS011;12268;52.110;5.548;2023-08-30T23:23:07;6.82;;;4.30;;
24084;SDS011;12268;52.110;5.548;2023-08-30T23:25:36;8.30;;;5.05;;
24084;SDS011;12268;52.110;5.548;2023-08-30T23:28:02;6.68;;;4.22;;
24084;SDS011;12268;52.110;5.548;2023-08-30T23:30:28;5.38;;;4.15;;
24084;SDS011;12268;52.110;5.548;2023-08-30T23:32:54;6.30;;;4.47;;
24084;SDS011;12268;52.110;5.548;2023-08-30T23:35:20;6.35;;;4.65;;
24084;SDS011;12268;52.110;5.548;2023-08-30T23:37:46;8.07;;;4.57;;
24084;SDS011;12268;52.110;5.548;2023-08-30T23:40:12;9.82;;;4.72;;
24084;SDS011;12268;52.110;5.548;2023-08-30T23:42:39;9.32;;;5.05;;
24084;SDS011;12268;52.110;5.548;2023-08-30T23:45:05;6.85;;;4.80;;
24084;SDS011;12268;52.110;5.548;2023-08-30T23:47:31;8.13;;;4.72;;
24084;SDS011;12268;52.110;5.548;2023-08-30T23:49:58;8.07;;;5.03;;
24084;SDS011;12268;52.110;5.548;2023-08-30T23:52:23;7.75;;;5.40;;
24084;SDS011;12268;52.110;5.548;2023-08-30T23:54:49;9.25;;;5.18;;
24084;SDS011;12268;52.110;5.548;2023-08-30T23:57:17;10.00;;;5.80;;
24084;SDS011;12268;52.110;5.548;2023-08-30T23:59:43;10.50;;;6.10;;
